Meteorología y climatología de Navarra
Datos de la estación - Meteo Navarra

Estación de Aralar GN

Altitud 1344 m.


Datos desde el 16/09/2020 hasta el 17/09/2020 en horario solar
Los datos son PROVISIONALES

Anterior Página 1 de 1 Siguiente Descargar: Formato para Excel 2000 o superior   Formato csv   Formato para OpenOffice Calc
Fecha Temperatura Humedad relativa Radiación global Insolación Precipitación Vel. viento 10 m Vel. viento 10 m Dir. viento 10 m
ºC % W/m² s l/m² m/s km/h º
16/09/2020 0:00 17.6 65 0.0 0 0.0 5.1 18.3 158
16/09/2020 0:10 17.7 65 0.0 0 0.0 5.5 19.7 162
16/09/2020 0:20 18.0 63 0.0 0 0.0 5.2 18.8 161
16/09/2020 0:30 18.0 64 0.0 0 0.0 5.2 18.8 160
16/09/2020 0:40 17.9 63 0.0 0 0.0 5.2 18.6 158
16/09/2020 0:50 17.7 65 0.0 0 0.0 5.3 19.2 159
16/09/2020 1:00 17.9 63 0.0 0 0.0 5.6 20.0 161
16/09/2020 1:10 17.8 64 0.0 0 0.0 5.7 20.6 160
16/09/2020 1:20 17.6 65 0.0 0 0.0 5.1 18.4 159
16/09/2020 1:30 17.4 66 0.0 0 0.0 4.4 15.9 152
16/09/2020 1:40 17.5 66 0.0 0 0.0 4.2 15.0 154
16/09/2020 1:50 17.4 66 0.0 0 0.0 4.4 15.8 157
16/09/2020 2:00 17.4 67 0.0 0 0.0 4.7 17.0 163
16/09/2020 2:10 17.3 66 0.0 0 0.0 5.6 20.1 170
16/09/2020 2:20 17.4 66 0.0 0 0.0 5.9 21.3 173
16/09/2020 2:30 17.4 65 0.0 0 0.0 6.2 22.2 174
16/09/2020 2:40 17.4 65 0.0 0 0.0 6.2 22.4 174
16/09/2020 2:50 17.6 64 0.0 0 0.0 6.0 21.6 172
16/09/2020 3:00 17.7 64 0.0 0 0.0 5.9 21.2 172
16/09/2020 3:10 17.6 64 0.0 0 0.0 6.0 21.4 170
16/09/2020 3:20 17.3 66 0.0 0 0.0 6.0 21.5 169
16/09/2020 3:30 17.1 67 0.0 0 0.0 5.9 21.4 168
16/09/2020 3:40 16.9 68 0.0 0 0.0 5.0 18.0 164
16/09/2020 3:50 16.9 69 0.0 0 0.0 4.9 17.7 163
16/09/2020 4:00 16.9 69 0.0 0 0.0 5.1 18.4 161
16/09/2020 4:10 16.9 69 0.0 0 0.0 5.3 19.2 161
16/09/2020 4:20 16.9 68 0.0 0 0.0 5.2 18.7 159
16/09/2020 4:30 16.9 68 0.0 0 0.0 5.1 18.3 158
16/09/2020 4:40 16.9 68 0.0 0 0.0 5.7 20.4 161
16/09/2020 4:50 17.0 67 0.0 0 0.0 6.1 22.0 161
16/09/2020 5:00 17.0 67 0.0 0 0.0 6.0 21.5 162
16/09/2020 5:10 17.0 68 0.0 0 0.0 6.2 22.1 167
16/09/2020 5:20 17.1 67 0.0 0 0.0 6.5 23.2 171
16/09/2020 5:30 17.0 67 0.0 0 0.0 6.8 24.3 168
16/09/2020 5:40 17.0 68 0.0 0 0.0 6.8 24.5 165
16/09/2020 5:50 16.9 68 0.0 0 0.0 6.6 23.9 165
16/09/2020 6:00 17.0 69 0.5 0 0.0 5.6 20.3 159
16/09/2020 6:10 16.9 69 27.6 248 0.0 6.0 21.5 159
16/09/2020 6:20 17.0 69 54.3 600 0.0 6.6 23.8 159
16/09/2020 6:30 17.2 69 77.0 600 0.0 6.2 22.5 159
16/09/2020 6:40 17.1 69 103.2 600 0.0 5.8 20.8 161
16/09/2020 6:50 17.5 68 159.4 600 0.0 6.0 21.5 164
16/09/2020 7:00 18.0 65 157.8 600 0.0 6.6 23.8 165
16/09/2020 7:10 18.1 64 188.7 600 0.0 5.7 20.7 160
16/09/2020 7:20 18.5 63 209.7 600 0.0 6.5 23.3 160
16/09/2020 7:30 18.4 64 181.2 600 0.0 6.3 22.8 160
16/09/2020 7:40 18.2 66 229.3 600 0.0 5.9 21.3 154
16/09/2020 7:50 18.3 65 256.6 600 0.0 5.0 18.1 156
16/09/2020 8:00 18.4 66 287.0 600 0.0 4.4 15.7 154
16/09/2020 8:10 18.6 65 317.5 600 0.0 4.6 16.7 149
16/09/2020 8:20 18.9 64 383.9 600 0.0 4.5 16.1 153
16/09/2020 8:30 19.4 63 445.6 600 0.0 4.2 15.3 157
16/09/2020 8:40 19.8 61 474.3 600 0.0 4.3 15.4 158
16/09/2020 8:50 20.1 60 502.9 600 0.0 4.5 16.0 162
16/09/2020 9:00 20.6 58 533.8 600 0.0 4.5 16.1 163
16/09/2020 9:10 20.7 58 561.8 600 0.0 3.9 14.0 166
16/09/2020 9:20 21.0 57 589.5 600 0.0 4.4 15.7 174
16/09/2020 9:30 21.4 56 609.1 600 0.0 4.2 15.1 173
16/09/2020 9:40 21.4 56 634.5 600 0.0 3.7 13.3 162
16/09/2020 9:50 21.2 57 654.8 600 0.0 3.4 12.3 161
16/09/2020 10:00 21.4 57 677.0 600 0.0 3.4 12.2 153
16/09/2020 10:10 21.5 56 698.7 600 0.0 3.3 11.9 148
16/09/2020 10:20 21.9 55 717.2 600 0.0 3.3 11.7 160
16/09/2020 10:30 22.3 53 750.0 600 0.0 3.4 12.2 164
16/09/2020 10:40 22.5 53 755.7 600 0.0 3.7 13.2 168
16/09/2020 10:50 22.5 52 769.7 600 0.0 3.6 13.0 156
16/09/2020 11:00 22.6 51 778.2 600 0.0 3.8 13.7 150
16/09/2020 11:10 22.7 49 792.5 600 0.0 3.6 12.9 173
16/09/2020 11:20 22.9 49 802.0 600 0.0 3.8 13.8 160
16/09/2020 11:30 23.5 47 813.0 600 0.0 3.9 14.2 174
16/09/2020 11:40 23.0 48 805.0 600 0.0 3.6 13.1 159
16/09/2020 11:50 23.4 46 808.0 600 0.0 3.2 11.7 153
16/09/2020 12:00 22.5 48 820.0 600 0.0 2.4 8.8 127
16/09/2020 12:10 22.9 47 798.0 600 0.0 4.4 15.8 135
16/09/2020 12:20 23.1 45 811.0 600 0.0 3.0 10.9 155
16/09/2020 12:30 22.9 45 802.0 600 0.0 2.2 7.9 187
16/09/2020 12:40 23.1 45 841.0 600 0.0 3.8 13.6 158
16/09/2020 12:50 23.7 43 831.0 600 0.0 2.5 8.9 153
16/09/2020 13:00 24.2 42 808.0 600 0.0 3.2 11.5 162
16/09/2020 13:10 23.8 41 802.0 600 0.0 4.0 14.4 138
16/09/2020 13:20 23.4 42 768.5 600 0.0 3.7 13.2 96
16/09/2020 13:30 23.3 42 746.8 600 0.0 2.1 7.6 130
16/09/2020 13:40 23.8 41 713.5 600 0.0 4.2 15.0 146
16/09/2020 13:50 24.0 40 691.0 600 0.0 3.9 13.9 148
16/09/2020 14:00 23.9 40 671.0 600 0.0 2.5 9.0 186
16/09/2020 14:10 23.8 40 686.4 600 0.0 2.3 8.3 140
16/09/2020 14:20 23.9 39 671.4 600 0.0 3.7 13.4 149
16/09/2020 14:30 23.4 40 648.8 600 0.0 1.8 6.4 67
16/09/2020 14:40 22.3 53 570.0 580 0.0 2.4 8.8 8
16/09/2020 14:50 21.8 56 490.6 600 0.0 2.0 7.0 355
16/09/2020 15:00 21.4 64 515.0 600 0.0 2.8 10.1 353
16/09/2020 15:10 21.3 65 396.7 424 0.0 4.4 15.7 359
16/09/2020 15:20 20.9 68 195.1 0 0.0 4.6 16.7 350
16/09/2020 15:30 20.7 70 455.4 590 0.0 4.5 16.3 355
16/09/2020 15:40 20.9 70 465.8 600 0.0 5.7 20.6 359
16/09/2020 15:50 20.8 72 280.9 466 0.0 6.1 22.0 358
16/09/2020 16:00 20.3 73 212.0 226 0.0 6.6 23.8 4
16/09/2020 16:10 20.0 75 329.9 600 0.0 6.2 22.1 356
16/09/2020 16:20 20.1 73 267.4 600 0.0 6.5 23.4 3
16/09/2020 16:30 20.0 73 257.8 600 0.0 6.5 23.3 359
16/09/2020 16:40 19.9 74 259.5 600 0.0 6.0 21.5 0
16/09/2020 16:50 19.8 75 238.1 600 0.0 5.9 21.3 357
16/09/2020 17:00 19.7 74 187.2 600 0.0 6.2 22.4 3
16/09/2020 17:10 19.4 76 146.6 600 0.0 5.6 20.1 9
16/09/2020 17:20 19.3 76 108.1 600 0.0 6.0 21.6 12
16/09/2020 17:30 19.1 75 52.4 34 0.0 6.3 22.7 19
16/09/2020 17:40 19.0 75 32.3 0 0.0 5.8 21.0 21
16/09/2020 17:50 18.9 75 22.9 0 0.0 6.3 22.5 24
16/09/2020 18:00 18.9 74 8.2 0 0.0 6.7 24.0 25
16/09/2020 18:10 18.7 74 0.0 0 0.0 6.1 21.9 22
16/09/2020 18:20 18.7 73 0.0 0 0.0 6.4 22.9 22
16/09/2020 18:30 18.8 71 0.0 0 0.0 7.1 25.6 23
16/09/2020 18:40 18.7 72 0.0 0 0.0 6.5 23.3 21
16/09/2020 18:50 18.5 72 0.0 0 0.0 6.4 23.2 18
16/09/2020 19:00 18.5 73 0.0 0 0.0 6.5 23.4 20
16/09/2020 19:10 18.6 71 0.0 0 0.0 7.3 26.1 24
16/09/2020 19:20 18.6 70 0.0 0 0.0 6.6 23.8 26
16/09/2020 19:30 18.7 68 0.0 0 0.0 7.4 26.5 28
16/09/2020 19:40 18.7 66 0.0 0 0.0 6.9 24.9 36
16/09/2020 19:50 18.7 67 0.0 0 0.0 6.9 24.7 33
16/09/2020 20:00 18.5 68 0.0 0 0.0 7.6 27.3 31
16/09/2020 20:10 18.4 68 0.0 0 0.0 7.0 25.3 30
16/09/2020 20:20 18.3 68 0.0 0 0.0 7.1 25.6 32
16/09/2020 20:30 18.3 68 0.0 0 0.0 7.3 26.2 31
16/09/2020 20:40 18.2 68 0.0 0 0.0 6.9 24.7 32
16/09/2020 20:50 18.1 68 0.0 0 0.0 6.2 22.4 32
16/09/2020 21:00 18.0 68 0.0 0 0.0 6.0 21.5 32
16/09/2020 21:10 18.1 66 0.0 0 0.0 5.9 21.1 41
16/09/2020 21:20 18.2 65 0.0 0 0.0 5.3 19.2 46
16/09/2020 21:30 18.4 64 0.0 0 0.0 5.3 18.9 43
16/09/2020 21:40 18.4 63 0.0 0 0.0 5.2 18.6 42
16/09/2020 21:50 18.5 61 0.0 0 0.0 5.2 18.6 47
16/09/2020 22:00 18.5 61 0.0 0 0.0 4.7 17.0 47
16/09/2020 22:10 18.5 60 0.0 0 0.0 5.1 18.4 49
16/09/2020 22:20 18.6 61 0.0 0 0.0 4.9 17.5 42
16/09/2020 22:30 18.2 63 0.0 0 0.0 4.3 15.4 44
16/09/2020 22:40 18.3 62 0.0 0 0.0 4.1 14.6 51
16/09/2020 22:50 18.3 62 0.0 0 0.0 4.3 15.4 50
16/09/2020 23:00 18.3 62 0.0 0 0.0 4.2 15.2 48
16/09/2020 23:10 18.1 63 0.0 0 0.0 4.2 15.3 44
16/09/2020 23:20 18.1 63 0.0 0 0.0 4.0 14.3 54
16/09/2020 23:30 18.2 61 0.0 0 0.0 4.0 14.5 65
16/09/2020 23:40 18.6 60 0.0 0 0.0 4.0 14.5 79
16/09/2020 23:50 18.6 59 0.0 0 0.0 4.1 14.8 93
Anterior Página 1 de 1 Siguiente
Los datos de precipitación registrados en estaciones que están en cumbres son inferiores a lo real, como consecuencia del efecto del viento y de la nieve.


NOTA: Tipo de datos según el color:
   - Valores diarios o 10 minutos correctos
   - Valores diarios calculados a partir de un número de datos 10 minutos menor que 144 y mayor que 120, o de un número de datos semihorarios menor que 48 y mayor que 40 (caso de las estaciones de INTIA y del Ministerio)
   - Valores diez minutos estimados


Contacto        Enlaces        Aviso legal